Time;durP1;ratioP1;P1;durP2;ratioP2;P2;SDS_P1;SDS_P2;PMS_P1;PMS_P2;Temp;Humidity;BMP_temperature;BMP_pressure;BME280_temperature;BME280_humidity;BME280_pressure;Samples;Min_cycle;Max_cycle;Signal;HPM_P1;HPM_P2
2022/08/28 00:01:01;;;;;;;;;;;14.10;99.90;;;;;;5049284;28;19913;-69
2022/08/28 00:03:28;;;;;;;;;;;14.30;99.90;;;;;;5050382;28;19932;-69
2022/08/28 00:05:55;;;;;;;;;;;14.40;99.90;;;;;;5023581;28;20360;-69
2022/08/28 00:08:22;;;;;;;;;;;14.40;99.90;;;;;;5010536;28;19909;-71
2022/08/28 00:10:48;;;;;;;;;;;14.50;99.90;;;;;;5010488;28;19916;-71
2022/08/28 00:13:18;;;;;;;;;;;14.70;99.90;;;;;;5010581;28;20004;-71
2022/08/28 00:15:47;;;;;;;;;;;14.90;99.90;;;;;;5011855;28;19910;-70
2022/08/28 00:18:13;;;;;;;;;;;15.00;99.90;;;;;;5014011;28;19945;-69
2022/08/28 00:20:40;;;;;;;;;;;15.20;99.90;;;;;;5013314;28;19922;-71
2022/08/28 00:23:07;;;;;;;;;;;15.40;99.90;;;;;;5014043;28;19952;-70
2022/08/28 00:25:34;;;;;;;;;;;15.50;99.90;;;;;;5014034;28;19996;-69
2022/08/28 00:28:03;;;;;;;;;;;15.60;99.90;;;;;;5015061;28;19937;-69
2022/08/28 00:30:33;;;;;;;;;;;15.70;99.90;;;;;;5013951;28;19917;-68
2022/08/28 00:33:02;;;;;;;;;;;15.80;99.90;;;;;;5013870;28;19909;-68
2022/08/28 00:35:29;;;;;;;;;;;15.80;99.90;;;;;;5013406;28;19968;-68
2022/08/28 00:37:56;;;;;;;;;;;15.80;99.90;;;;;;5013597;28;19916;-68
2022/08/28 00:40:24;;;;;;;;;;;15.80;99.90;;;;;;5013699;28;20388;-69
2022/08/28 00:42:51;;;;;;;;;;;15.90;99.90;;;;;;5014220;28;19927;-69
2022/08/28 00:45:18;;;;;;;;;;;16.10;99.90;;;;;;5013856;28;20008;-69
2022/08/28 00:47:45;;;;;;;;;;;16.10;99.90;;;;;;5013440;28;19910;-68
2022/08/28 00:50:16;;;;;;;;;;;16.10;99.90;;;;;;5012952;28;19916;-68
2022/08/28 00:52:44;;;;;;;;;;;16.20;99.90;;;;;;5013617;28;20416;-69
2022/08/28 00:55:13;;;;;;;;;;;16.20;99.90;;;;;;5013400;28;19982;-69
2022/08/28 00:57:43;;;;;;;;;;;16.20;99.90;;;;;;5013286;28;19909;-68
2022/08/28 01:00:12;;;;;;;;;;;16.30;99.90;;;;;;5012064;28;20008;-69
2022/08/28 01:02:39;;;;;;;;;;;16.50;99.90;;;;;;5013280;28;20287;-69
2022/08/28 01:05:08;;;;;;;;;;;16.50;99.90;;;;;;5012684;28;19932;-68
2022/08/28 01:07:38;;;;;;;;;;;16.50;99.90;;;;;;5013356;28;19920;-69
2022/08/28 01:10:08;;;;;;;;;;;16.60;99.90;;;;;;5012882;28;19966;-69
2022/08/28 01:12:35;;;;;;;;;;;16.70;99.90;;;;;;5013170;28;20228;-68
2022/08/28 01:15:05;;;;;;;;;;;17.00;99.90;;;;;;5013131;28;19909;-69
2022/08/28 01:17:33;;;;;;;;;;;17.60;99.90;;;;;;5013465;28;19909;-68
2022/08/28 01:20:04;;;;;;;;;;;18.20;99.90;;;;;;5012274;28;19917;-69
2022/08/28 01:22:30;;;;;;;;;;;18.50;99.90;;;;;;5013103;28;19913;-69
2022/08/28 01:24:59;;;;;;;;;;;18.40;99.90;;;;;;5012798;28;19946;-69
2022/08/28 01:27:26;;;;;;;;;;;18.60;99.90;;;;;;5012120;28;19932;-68
2022/08/28 01:29:54;;;;;;;;;;;18.60;99.90;;;;;;5012519;28;19916;-69
2022/08/28 01:32:27;;;;;;;;;;;18.60;99.90;;;;;;5012716;28;19917;-68
2022/08/28 01:34:54;;;;;;;;;;;18.50;99.90;;;;;;5012400;28;19936;-70
2022/08/28 01:37:20;;;;;;;;;;;18.30;99.90;;;;;;5012812;28;19963;-70
2022/08/28 01:39:47;;;;;;;;;;;18.00;99.90;;;;;;5012442;28;19917;-69
2022/08/28 01:42:15;;;;;;;;;;;17.80;99.90;;;;;;5012897;28;19910;-69
2022/08/28 01:44:41;;;;;;;;;;;17.80;99.90;;;;;;5012539;28;19913;-70
2022/08/28 01:47:08;;;;;;;;;;;17.90;99.90;;;;;;5012745;28;20378;-69
2022/08/28 01:49:35;;;;;;;;;;;17.90;99.90;;;;;;5012093;28;19910;-69
2022/08/28 01:52:03;;;;;;;;;;;17.90;99.90;;;;;;5012573;28;19913;-69
2022/08/28 01:54:29;;;;;;;;;;;17.80;99.90;;;;;;5012408;28;19909;-69
2022/08/28 01:56:56;;;;;;;;;;;17.80;99.90;;;;;;5012470;28;19955;-69
2022/08/28 01:59:23;;;;;;;;;;;17.80;99.90;;;;;;5012456;28;19917;-70
2022/08/28 02:01:50;;;;;;;;;;;17.80;99.90;;;;;;5012191;28;20322;-69
2022/08/28 02:04:16;;;;;;;;;;;17.90;99.90;;;;;;5011954;28;19909;-69
2022/08/28 02:06:43;;;;;;;;;;;17.90;99.90;;;;;;5012383;28;19914;-69
2022/08/28 02:09:10;;;;;;;;;;;17.80;99.90;;;;;;5012121;28;19956;-68
2022/08/28 02:11:40;;;;;;;;;;;17.80;99.90;;;;;;5012155;28;19909;-68
2022/08/28 02:14:06;;;;;;;;;;;17.90;99.90;;;;;;5012274;28;19910;-69
2022/08/28 02:16:33;;;;;;;;;;;17.80;99.90;;;;;;5012143;28;19936;-70
2022/08/28 02:19:00;;;;;;;;;;;17.80;99.90;;;;;;5011629;28;20366;-69
2022/08/28 02:21:27;;;;;;;;;;;17.80;99.90;;;;;;5012065;28;19909;-69
2022/08/28 02:23:54;;;;;;;;;;;17.80;99.90;;;;;;5011756;28;19963;-69
2022/08/28 02:26:22;;;;;;;;;;;17.80;99.90;;;;;;5012033;28;19955;-69
2022/08/28 02:28:49;;;;;;;;;;;17.80;99.90;;;;;;5012053;28;19909;-69
2022/08/28 02:31:15;;;;;;;;;;;17.80;99.90;;;;;;5011909;28;20023;-69
2022/08/28 02:33:43;;;;;;;;;;;17.80;99.90;;;;;;5011265;28;19910;-68
2022/08/28 02:36:11;;;;;;;;;;;17.80;99.90;;;;;;5012138;28;19910;-69
2022/08/28 02:38:38;;;;;;;;;;;17.90;99.90;;;;;;5010723;28;19909;-70
2022/08/28 02:41:05;;;;;;;;;;;17.80;99.90;;;;;;5011683;28;19917;-69
2022/08/28 02:43:32;;;;;;;;;;;17.80;99.90;;;;;;5011781;28;20054;-70
2022/08/28 02:46:00;;;;;;;;;;;17.80;99.90;;;;;;5011565;28;19916;-68
2022/08/28 02:48:28;;;;;;;;;;;17.80;99.90;;;;;;5026150;28;19918;-70
2022/08/28 02:51:02;;;;;;;;;;;17.70;99.90;;;;;;5011653;28;20053;-69
2022/08/28 02:53:29;;;;;;;;;;;17.70;99.90;;;;;;5011397;28;20367;-69
2022/08/28 02:55:56;;;;;;;;;;;17.70;99.90;;;;;;5011388;28;19914;-69
2022/08/28 02:58:25;;;;;;;;;;;17.60;99.90;;;;;;5011663;28;20271;-69
2022/08/28 03:00:53;;;;;;;;;;;17.70;99.90;;;;;;5011418;28;19917;-68
2022/08/28 03:03:19;;;;;;;;;;;17.70;99.90;;;;;;5010941;28;19948;-68
2022/08/28 03:05:46;;;;;;;;;;;17.80;99.90;;;;;;5011437;28;19922;-68
2022/08/28 03:08:14;;;;;;;;;;;17.80;99.90;;;;;;5019883;28;19916;-69
2022/08/28 03:10:41;;;;;;;;;;;17.70;99.90;;;;;;5011678;28;19967;-70
2022/08/28 03:13:08;;;;;;;;;;;17.70;99.90;;;;;;5010698;28;19996;-68
2022/08/28 03:15:34;;;;;;;;;;;17.80;99.90;;;;;;5010601;28;19962;-69
2022/08/28 03:18:01;;;;;;;;;;;17.70;99.90;;;;;;5010769;28;20303;-69
2022/08/28 03:20:28;;;;;;;;;;;17.60;99.90;;;;;;5010627;28;19965;-69
2022/08/28 03:25:39;;;;;;;;;;;17.60;99.90;;;;;;5010352;28;20317;-70
2022/08/28 03:28:05;;;;;;;;;;;17.70;99.90;;;;;;5010331;28;20386;-70
2022/08/28 03:30:32;;;;;;;;;;;17.60;99.90;;;;;;5010487;28;19956;-69
2022/08/28 03:32:59;;;;;;;;;;;17.60;99.90;;;;;;5010116;28;20368;-70
2022/08/28 03:35:26;;;;;;;;;;;17.60;99.90;;;;;;5010321;28;19913;-69
2022/08/28 03:37:53;;;;;;;;;;;17.60;99.90;;;;;;5009988;28;19909;-70
2022/08/28 03:40:20;;;;;;;;;;;17.60;99.90;;;;;;5010215;28;20291;-71
2022/08/28 03:42:47;;;;;;;;;;;17.60;99.90;;;;;;5010013;28;19910;-70
2022/08/28 03:45:14;;;;;;;;;;;17.70;99.90;;;;;;5010272;28;19936;-70
2022/08/28 03:47:41;;;;;;;;;;;17.60;99.90;;;;;;5008746;28;19917;-70
2022/08/28 03:50:10;;;;;;;;;;;17.60;99.90;;;;;;5009860;28;20383;-70
2022/08/28 03:52:38;;;;;;;;;;;17.60;99.90;;;;;;5010060;28;19910;-70
2022/08/28 03:55:07;;;;;;;;;;;17.60;99.90;;;;;;5008978;28;19921;-69
2022/08/28 03:57:34;;;;;;;;;;;17.60;99.90;;;;;;5010149;28;20440;-70
2022/08/28 04:00:01;;;;;;;;;;;17.60;99.90;;;;;;5009974;28;20394;-70
2022/08/28 04:02:28;;;;;;;;;;;17.70;99.90;;;;;;5009929;28;19914;-70
2022/08/28 04:04:55;;;;;;;;;;;17.70;99.90;;;;;;5009900;28;20287;-70
2022/08/28 04:07:22;;;;;;;;;;;17.70;99.90;;;;;;5009598;28;19910;-70
2022/08/28 04:09:49;;;;;;;;;;;17.70;99.90;;;;;;5009567;28;19925;-69
2022/08/28 04:12:19;;;;;;;;;;;17.60;99.90;;;;;;5008994;28;20221;-70
2022/08/28 04:14:46;;;;;;;;;;;17.50;99.90;;;;;;5009765;28;19909;-70
2022/08/28 04:17:13;;;;;;;;;;;17.50;99.90;;;;;;5009919;28;20346;-70
2022/08/28 04:19:40;;;;;;;;;;;17.50;99.90;;;;;;5009679;28;19914;-69
2022/08/28 04:22:07;;;;;;;;;;;17.50;99.90;;;;;;5009927;28;20024;-70
2022/08/28 04:24:33;;;;;;;;;;;17.50;99.90;;;;;;5009834;28;20024;-70
2022/08/28 04:27:00;;;;;;;;;;;17.50;99.90;;;;;;5009848;28;19917;-70
2022/08/28 04:29:28;;;;;;;;;;;17.60;99.90;;;;;;5009711;28;19955;-70
2022/08/28 04:31:56;;;;;;;;;;;17.60;99.90;;;;;;5009393;28;19921;-69
2022/08/28 04:34:23;;;;;;;;;;;17.60;99.90;;;;;;5009636;28;19910;-70
2022/08/28 04:36:51;;;;;;;;;;;17.60;99.90;;;;;;5009651;28;20000;-69
2022/08/28 04:39:17;;;;;;;;;;;17.60;99.90;;;;;;5009444;28;20000;-69
2022/08/28 04:41:44;;;;;;;;;;;17.50;99.90;;;;;;5009564;28;20386;-70
2022/08/28 04:44:11;;;;;;;;;;;17.40;99.90;;;;;;5009543;28;20333;-69
2022/08/28 04:46:38;;;;;;;;;;;17.50;99.90;;;;;;5009392;28;20390;-70
2022/08/28 04:49:04;;;;;;;;;;;17.50;99.90;;;;;;5009275;28;19909;-70
2022/08/28 04:51:31;;;;;;;;;;;17.50;99.90;;;;;;5009297;28;19913;-69
2022/08/28 04:53:58;;;;;;;;;;;17.50;99.90;;;;;;5009187;28;19910;-69
2022/08/28 04:56:25;;;;;;;;;;;17.50;99.90;;;;;;5009388;28;19916;-69
2022/08/28 04:58:52;;;;;;;;;;;17.50;99.90;;;;;;5009448;28;19909;-69
2022/08/28 05:01:20;;;;;;;;;;;17.50;99.90;;;;;;5008206;28;19920;-69
2022/08/28 05:03:48;;;;;;;;;;;17.50;99.90;;;;;;5012132;28;19998;-69
2022/08/28 05:06:15;;;;;;;;;;;17.60;99.90;;;;;;5012659;28;19916;-69
2022/08/28 05:08:43;;;;;;;;;;;17.60;99.90;;;;;;5012372;28;19922;-69
2022/08/28 05:11:12;;;;;;;;;;;17.60;99.90;;;;;;5012524;28;19914;-69
2022/08/28 05:13:39;;;;;;;;;;;17.50;99.90;;;;;;5012503;28;19909;-69
2022/08/28 05:16:06;;;;;;;;;;;17.30;99.90;;;;;;5012483;28;20326;-69
2022/08/28 05:18:33;;;;;;;;;;;17.30;99.90;;;;;;5012409;28;20358;-69
2022/08/28 05:21:00;;;;;;;;;;;17.20;99.90;;;;;;5012326;28;19924;-69
2022/08/28 05:23:27;;;;;;;;;;;17.10;99.90;;;;;;5012260;28;19920;-69
2022/08/28 05:25:54;;;;;;;;;;;17.10;99.90;;;;;;5012194;28;20306;-70
2022/08/28 05:28:23;;;;;;;;;;;17.10;99.90;;;;;;5012529;28;19913;-69
2022/08/28 05:30:50;;;;;;;;;;;17.10;99.90;;;;;;5012164;28;20320;-69
2022/08/28 05:33:17;;;;;;;;;;;17.10;99.90;;;;;;5012238;28;19914;-69
2022/08/28 05:35:44;;;;;;;;;;;17.10;99.90;;;;;;5012231;28;19910;-69
2022/08/28 05:38:12;;;;;;;;;;;17.20;99.90;;;;;;5012116;28;20010;-69
2022/08/28 05:40:46;;;;;;;;;;;17.20;99.90;;;;;;5012014;28;20457;-69
2022/08/28 05:43:13;;;;;;;;;;;17.20;99.90;;;;;;5011934;28;19916;-70
2022/08/28 05:45:40;;;;;;;;;;;17.20;99.90;;;;;;5011818;28;19913;-69
2022/08/28 05:48:07;;;;;;;;;;;17.20;99.90;;;;;;5012121;28;20047;-70
2022/08/28 05:50:36;;;;;;;;;;;17.10;99.90;;;;;;5011991;28;20116;-70
2022/08/28 05:53:02;;;;;;;;;;;17.20;99.90;;;;;;5011753;28;19945;-69
2022/08/28 05:55:29;;;;;;;;;;;17.20;99.90;;;;;;5011871;28;19909;-69
2022/08/28 05:58:27;;;;;;;;;;;17.20;99.90;;;;;;5011723;28;19909;-69
2022/08/28 06:00:42;;;;;;;;;;;17.30;99.90;;;;;;5011536;28;19917;-69
2022/08/28 06:03:09;;;;;;;;;;;17.30;99.90;;;;;;5011668;28;20431;-69
2022/08/28 06:05:37;;;;;;;;;;;17.30;99.90;;;;;;5011487;28;19917;-67
2022/08/28 06:08:03;;;;;;;;;;;17.30;99.90;;;;;;5011451;28;19914;-68
2022/08/28 06:10:30;;;;;;;;;;;17.30;99.90;;;;;;5011643;28;19921;-68
2022/08/28 06:12:57;;;;;;;;;;;17.20;99.90;;;;;;5011431;28;19916;-68
2022/08/28 06:15:25;;;;;;;;;;;17.10;99.90;;;;;;5011568;28;19909;-69
2022/08/28 06:17:52;;;;;;;;;;;17.10;99.90;;;;;;5011577;28;19910;-68
2022/08/28 06:20:19;;;;;;;;;;;17.10;99.90;;;;;;5011373;28;19918;-68
2022/08/28 06:22:48;;;;;;;;;;;17.00;99.90;;;;;;5012168;28;19910;-68
2022/08/28 06:25:15;;;;;;;;;;;17.00;99.90;;;;;;5012834;28;20410;-68
2022/08/28 06:27:42;;;;;;;;;;;17.00;99.90;;;;;;5011860;28;19909;-68
2022/08/28 06:30:09;;;;;;;;;;;17.00;99.90;;;;;;5012311;28;20287;-68
2022/08/28 06:32:36;;;;;;;;;;;17.00;99.90;;;;;;5012150;28;19909;-67
2022/08/28 06:35:03;;;;;;;;;;;17.00;99.90;;;;;;5011574;28;19914;-69
2022/08/28 06:37:29;;;;;;;;;;;16.90;99.90;;;;;;5011738;28;19921;-69
2022/08/28 06:39:57;;;;;;;;;;;16.90;99.90;;;;;;5011606;28;19921;-69
2022/08/28 06:42:24;;;;;;;;;;;16.90;99.90;;;;;;5011638;28;20356;-69
2022/08/28 06:44:50;;;;;;;;;;;16.80;99.90;;;;;;5011616;28;20335;-69
2022/08/28 06:47:17;;;;;;;;;;;16.70;99.90;;;;;;5011862;28;19941;-68
2022/08/28 06:49:44;;;;;;;;;;;16.60;99.90;;;;;;5011219;28;19913;-68
2022/08/28 06:52:10;;;;;;;;;;;16.60;99.90;;;;;;5011323;28;19910;-68
2022/08/28 06:54:37;;;;;;;;;;;16.60;99.90;;;;;;5011698;28;19954;-68
2022/08/28 06:57:04;;;;;;;;;;;16.60;99.90;;;;;;5011553;28;19914;-69
2022/08/28 06:59:31;;;;;;;;;;;16.50;99.90;;;;;;5011466;28;19967;-69
2022/08/28 07:01:58;;;;;;;;;;;16.50;99.90;;;;;;5011057;28;19910;-68
2022/08/28 07:04:25;;;;;;;;;;;16.40;99.90;;;;;;5011191;28;19910;-69
2022/08/28 07:06:51;;;;;;;;;;;16.50;99.90;;;;;;5011304;28;19918;-68
2022/08/28 07:09:18;;;;;;;;;;;16.40;99.90;;;;;;5011322;28;20441;-69
2022/08/28 07:11:45;;;;;;;;;;;16.40;99.90;;;;;;5011400;28;19910;-69
2022/08/28 07:14:12;;;;;;;;;;;16.40;99.90;;;;;;5011444;28;19917;-69
2022/08/28 07:16:39;;;;;;;;;;;16.30;99.90;;;;;;5011339;28;19962;-69
2022/08/28 07:19:06;;;;;;;;;;;16.40;99.90;;;;;;5011326;28;19910;-69
2022/08/28 07:21:34;;;;;;;;;;;16.30;99.90;;;;;;5011171;28;19918;-70
2022/08/28 07:24:03;;;;;;;;;;;16.30;99.90;;;;;;5011279;28;19920;-69
2022/08/28 07:26:30;;;;;;;;;;;16.30;99.90;;;;;;5010586;28;19916;-68
2022/08/28 07:28:57;;;;;;;;;;;16.30;99.90;;;;;;5011110;28;19962;-68
2022/08/28 07:31:25;;;;;;;;;;;16.20;99.90;;;;;;5011089;28;19910;-69
2022/08/28 07:33:53;;;;;;;;;;;16.30;99.90;;;;;;5010936;28;19955;-69
2022/08/28 07:36:22;;;;;;;;;;;16.20;99.90;;;;;;5011154;28;19917;-69
2022/08/28 07:38:49;;;;;;;;;;;16.30;99.90;;;;;;5009845;28;20476;-70
2022/08/28 07:41:24;;;;;;;;;;;16.20;99.90;;;;;;5010975;28;19971;-69
2022/08/28 07:46:36;;;;;;;;;;;16.20;99.90;;;;;;5011075;28;19963;-69
2022/08/28 07:49:03;;;;;;;;;;;16.20;99.90;;;;;;5010972;28;20009;-69
2022/08/28 07:51:30;;;;;;;;;;;16.20;99.90;;;;;;5010691;28;19909;-68
2022/08/28 07:53:57;;;;;;;;;;;16.20;99.90;;;;;;5011811;28;19910;-69
2022/08/28 07:56:25;;;;;;;;;;;16.20;99.90;;;;;;5048412;28;20047;-69
2022/08/28 07:58:52;;;;;;;;;;;16.20;99.90;;;;;;5010856;28;19917;-69
2022/08/28 08:01:19;;;;;;;;;;;16.10;99.90;;;;;;5042772;27;19917;-70
2022/08/28 08:03:46;;;;;;;;;;;16.10;99.90;;;;;;5010484;28;19910;-69
2022/08/28 08:06:13;;;;;;;;;;;16.10;99.90;;;;;;5010744;28;19924;-70
2022/08/28 08:08:40;;;;;;;;;;;16.10;99.90;;;;;;5010495;28;19922;-70
2022/08/28 08:11:08;;;;;;;;;;;16.00;99.90;;;;;;5009511;28;19910;-69
2022/08/28 08:13:35;;;;;;;;;;;16.00;99.90;;;;;;5042368;28;19997;-69
2022/08/28 08:16:11;;;;;;;;;;;16.00;99.90;;;;;;5010576;28;20000;-69
2022/08/28 08:18:41;;;;;;;;;;;16.00;99.90;;;;;;5010542;28;19910;-69
2022/08/28 08:21:09;;;;;;;;;;;15.90;99.90;;;;;;5010394;28;20016;-70
2022/08/28 08:23:37;;;;;;;;;;;16.00;99.90;;;;;;5010138;28;19932;-70
2022/08/28 08:26:05;;;;;;;;;;;16.00;99.90;;;;;;5009563;28;19975;-70
2022/08/28 08:28:33;;;;;;;;;;;16.00;99.90;;;;;;5010627;28;19917;-69
2022/08/28 08:31:26;;;;;;;;;;;16.00;99.90;;;;;;5010766;28;20267;-70
2022/08/28 08:33:55;;;;;;;;;;;16.00;99.90;;;;;;5008102;28;19910;-69
2022/08/28 08:36:23;;;;;;;;;;;16.00;99.90;;;;;;5011206;28;19910;-69
2022/08/28 08:38:50;;;;;;;;;;;15.90;99.90;;;;;;5013959;28;19909;-69
2022/08/28 08:41:20;;;;;;;;;;;15.90;99.90;;;;;;5013945;28;20009;-69
2022/08/28 08:43:52;;;;;;;;;;;15.90;99.90;;;;;;5013586;28;20348;-69
2022/08/28 08:46:21;;;;;;;;;;;15.90;99.90;;;;;;5013822;28;20252;-69
2022/08/28 08:48:47;;;;;;;;;;;15.90;99.90;;;;;;5013800;28;19914;-69
2022/08/28 08:51:19;;;;;;;;;;;15.90;99.90;;;;;;5013578;28;20367;-69
2022/08/28 08:53:51;;;;;;;;;;;15.90;99.90;;;;;;5013312;28;20336;-69
2022/08/28 08:56:20;;;;;;;;;;;15.90;99.90;;;;;;5013615;28;19910;-69
2022/08/28 08:58:50;;;;;;;;;;;15.90;99.90;;;;;;5013516;28;19917;-70
2022/08/28 09:01:38;;;;;;;;;;;15.90;99.90;;;;;;5013456;28;19994;-69
2022/08/28 09:04:05;;;;;;;;;;;15.90;99.90;;;;;;5012636;28;19911;-69
2022/08/28 09:06:44;;;;;;;;;;;15.90;99.90;;;;;;5012952;28;19914;-69
2022/08/28 09:09:16;;;;;;;;;;;15.90;99.90;;;;;;5044810;28;20313;-69
2022/08/28 09:11:49;;;;;;;;;;;15.90;99.90;;;;;;5013017;28;19917;-70
2022/08/28 09:14:22;;;;;;;;;;;15.90;99.90;;;;;;5013238;28;19932;-68
2022/08/28 09:16:52;;;;;;;;;;;15.90;99.90;;;;;;5013122;28;19933;-68
2022/08/28 09:19:19;;;;;;;;;;;15.90;99.90;;;;;;5012498;28;19957;-69
2022/08/28 09:21:49;;;;;;;;;;;15.90;99.90;;;;;;5012810;28;20386;-69
2022/08/28 09:24:24;;;;;;;;;;;15.90;99.90;;;;;;5013009;28;19910;-69
2022/08/28 09:26:59;;;;;;;;;;;15.90;99.90;;;;;;5013128;28;19914;-70
2022/08/28 09:29:28;;;;;;;;;;;15.90;99.90;;;;;;5013064;28;19988;-70
2022/08/28 09:31:55;;;;;;;;;;;15.90;99.90;;;;;;5012758;28;19917;-69
2022/08/28 09:34:24;;;;;;;;;;;15.90;99.90;;;;;;5012233;28;19910;-69
2022/08/28 09:36:51;;;;;;;;;;;15.90;99.90;;;;;;5012832;28;20382;-69
2022/08/28 09:39:19;;;;;;;;;;;15.90;99.90;;;;;;5011527;28;19913;-69
2022/08/28 09:44:48;;;;;;;;;;;15.90;99.90;;;;;;5013469;28;19917;-69
2022/08/28 09:47:52;;;;;;;;;;;15.90;99.90;;;;;;5014513;28;20364;-69
2022/08/28 09:50:27;;;;;;;;;;;15.90;99.90;;;;;;4971327;28;19910;-68
2022/08/28 09:52:55;;;;;;;;;;;15.90;99.90;;;;;;4971527;28;20407;-70
2022/08/28 09:55:25;;;;;;;;;;;15.90;99.90;;;;;;4971547;28;19963;-69
2022/08/28 09:57:53;;;;;;;;;;;15.90;99.90;;;;;;4981225;28;19917;-69
2022/08/28 10:00:21;;;;;;;;;;;15.90;99.90;;;;;;5012659;28;20012;-70
2022/08/28 10:02:51;;;;;;;;;;;15.90;99.90;;;;;;5012044;28;19917;-69
2022/08/28 10:05:22;;;;;;;;;;;15.90;99.90;;;;;;5012465;28;19943;-70
2022/08/28 10:07:55;;;;;;;;;;;15.90;99.90;;;;;;5012398;28;20096;-69
2022/08/28 10:10:34;;;;;;;;;;;15.90;99.90;;;;;;5012365;28;20360;-70
2022/08/28 10:13:00;;;;;;;;;;;15.90;99.90;;;;;;5044067;28;19910;-69
2022/08/28 10:15:28;;;;;;;;;;;15.90;99.90;;;;;;5012372;28;19910;-69
2022/08/28 10:17:54;;;;;;;;;;;15.90;99.90;;;;;;5011501;28;19951;-70
2022/08/28 10:20:30;;;;;;;;;;;15.90;99.90;;;;;;5011803;28;19922;-70
2022/08/28 10:23:08;;;;;;;;;;;15.90;99.90;;;;;;5012254;28;19910;-70
2022/08/28 10:25:35;;;;;;;;;;;15.90;99.90;;;;;;5012132;28;20276;-70
2022/08/28 10:28:07;;;;;;;;;;;15.80;99.90;;;;;;5012110;28;19913;-69
2022/08/28 10:30:38;;;;;;;;;;;15.80;99.90;;;;;;5012058;28;19910;-69
2022/08/28 10:33:11;;;;;;;;;;;15.80;99.90;;;;;;5011262;28;19996;-69
2022/08/28 10:36:01;;;;;;;;;;;15.80;99.90;;;;;;5011674;28;19913;-69
2022/08/28 10:38:31;;;;;;;;;;;15.80;99.90;;;;;;5006605;28;19913;-69
2022/08/28 10:41:01;;;;;;;;;;;15.90;99.90;;;;;;5011791;28;19917;-69
2022/08/28 10:43:31;;;;;;;;;;;15.90;99.90;;;;;;5011705;28;20377;-70
2022/08/28 10:46:00;;;;;;;;;;;15.80;99.90;;;;;;5009388;28;19910;-68
2022/08/28 10:48:30;;;;;;;;;;;15.80;99.90;;;;;;5009324;28;19953;-69
2022/08/28 10:51:01;;;;;;;;;;;15.80;99.90;;;;;;5009518;28;20442;-69
2022/08/28 10:53:40;;;;;;;;;;;15.80;99.90;;;;;;5009737;28;19925;-68
2022/08/28 10:56:09;;;;;;;;;;;15.80;99.90;;;;;;5009475;28;20420;-67
2022/08/28 10:58:37;;;;;;;;;;;15.80;99.90;;;;;;5009271;28;20363;-68
2022/08/28 11:01:11;;;;;;;;;;;15.80;99.90;;;;;;5008530;28;19921;-68
2022/08/28 11:03:50;;;;;;;;;;;15.80;99.90;;;;;;5008767;28;19916;-68
2022/08/28 11:06:27;;;;;;;;;;;15.80;99.90;;;;;;5009112;28;19913;-69
2022/08/28 11:08:59;;;;;;;;;;;15.80;99.90;;;;;;5009215;28;19922;-68
2022/08/28 11:11:39;;;;;;;;;;;15.80;99.90;;;;;;5009035;28;19959;-69
2022/08/28 11:14:06;;;;;;;;;;;15.80;99.90;;;;;;5009253;28;20383;-68
2022/08/28 11:16:32;;;;;;;;;;;15.70;99.90;;;;;;5009326;28;19918;-68
2022/08/28 11:19:08;;;;;;;;;;;15.70;99.90;;;;;;5008637;28;19909;-68
2022/08/28 11:21:41;;;;;;;;;;;15.70;99.90;;;;;;5008915;28;19917;-68
2022/08/28 11:24:20;;;;;;;;;;;15.70;99.90;;;;;;5008996;28;19917;-68
2022/08/28 11:26:58;;;;;;;;;;;15.70;99.90;;;;;;5009424;28;19943;-69
2022/08/28 11:29:44;;;;;;;;;;;15.70;99.90;;;;;;5009024;28;20012;-68
2022/08/28 11:32:34;;;;;;;;;;;15.70;99.90;;;;;;5008811;28;19913;-69
2022/08/28 11:35:01;;;;;;;;;;;15.60;99.90;;;;;;5009311;28;19958;-68
2022/08/28 11:37:42;;;;;;;;;;;15.60;99.90;;;;;;5008482;28;19917;-68
2022/08/28 11:40:21;;;;;;;;;;;15.60;99.90;;;;;;5009064;28;20021;-69
2022/08/28 11:42:47;;;;;;;;;;;15.60;99.90;;;;;;5008939;28;19964;-68
2022/08/28 11:45:40;;;;;;;;;;;15.60;99.90;;;;;;5008853;28;20303;-68
2022/08/28 11:48:07;;;;;;;;;;;15.60;99.90;;;;;;5008254;28;19920;-69
2022/08/28 11:50:52;;;;;;;;;;;15.50;99.90;;;;;;5008302;28;19913;-68
2022/08/28 11:53:30;;;;;;;;;;;15.50;99.90;;;;;;5009106;28;19974;-68
2022/08/28 11:56:14;;;;;;;;;;;15.50;99.90;;;;;;5008508;28;19914;-69
2022/08/28 11:58:48;;;;;;;;;;;15.60;99.90;;;;;;5008926;28;20000;-68
2022/08/28 12:01:25;;;;;;;;;;;15.50;99.90;;;;;;5008630;28;19945;-68
2022/08/28 12:03:57;;;;;;;;;;;15.60;99.90;;;;;;5008015;28;19914;-68
2022/08/28 12:06:41;;;;;;;;;;;15.60;99.90;;;;;;5008626;28;20359;-68
2022/08/28 12:09:08;;;;;;;;;;;15.60;99.90;;;;;;5008739;28;20367;-69
2022/08/28 12:11:41;;;;;;;;;;;15.50;99.90;;;;;;5008144;28;19914;-68
2022/08/28 12:14:09;;;;;;;;;;;15.50;99.90;;;;;;5008367;28;19910;-69
2022/08/28 12:16:54;;;;;;;;;;;15.50;99.90;;;;;;5008272;28;20005;-69
2022/08/28 12:19:28;;;;;;;;;;;15.50;99.90;;;;;;5008694;28;19925;-69
2022/08/28 12:21:55;;;;;;;;;;;15.50;99.90;;;;;;5008318;28;20001;-69
2022/08/28 12:24:23;;;;;;;;;;;15.50;99.90;;;;;;5008725;28;20367;-69
2022/08/28 12:26:54;;;;;;;;;;;15.50;99.90;;;;;;5008592;28;19914;-69
2022/08/28 12:29:29;;;;;;;;;;;15.50;99.90;;;;;;5006966;28;20292;-68
2022/08/28 12:32:17;;;;;;;;;;;15.50;99.90;;;;;;5008181;28;20490;-69
2022/08/28 12:34:48;;;;;;;;;;;15.50;99.90;;;;;;5008270;28;20006;-68
2022/08/28 12:37:28;;;;;;;;;;;15.50;99.90;;;;;;5008325;28;19909;-69
2022/08/28 12:39:57;;;;;;;;;;;15.50;99.90;;;;;;5008021;28;19917;-69
2022/08/28 12:42:28;;;;;;;;;;;15.40;99.90;;;;;;5007951;28;20402;-68
2022/08/28 12:44:59;;;;;;;;;;;15.40;99.90;;;;;;5008272;28;19921;-69
2022/08/28 12:47:26;;;;;;;;;;;15.40;99.90;;;;;;5008303;28;20419;-69
2022/08/28 12:49:53;;;;;;;;;;;15.40;99.90;;;;;;5007932;28;20398;-69
2022/08/28 12:52:21;;;;;;;;;;;15.40;99.90;;;;;;5008207;28;19913;-68
2022/08/28 12:54:54;;;;;;;;;;;15.30;99.90;;;;;;5008113;28;19914;-70
2022/08/28 12:57:22;;;;;;;;;;;15.30;99.90;;;;;;5007887;28;19909;-71
2022/08/28 12:59:50;;;;;;;;;;;15.30;99.90;;;;;;5008035;28;19917;-70
2022/08/28 13:02:27;;;;;;;;;;;15.30;99.90;;;;;;5008347;28;19944;-70
2022/08/28 13:04:54;;;;;;;;;;;15.30;99.90;;;;;;5007990;28;19909;-70
2022/08/28 13:07:28;;;;;;;;;;;15.30;99.90;;;;;;5008039;28;19914;-70
2022/08/28 13:09:57;;;;;;;;;;;15.30;99.90;;;;;;5007448;28;19960;-70
2022/08/28 13:12:29;;;;;;;;;;;15.30;99.90;;;;;;5007981;28;20348;-69
2022/08/28 13:14:56;;;;;;;;;;;15.30;99.90;;;;;;5008212;28;19917;-70
2022/08/28 13:17:41;;;;;;;;;;;15.30;99.90;;;;;;5007899;28;19913;-70
2022/08/28 13:20:09;;;;;;;;;;;15.20;99.90;;;;;;5007872;28;20588;-70
2022/08/28 13:22:39;;;;;;;;;;;15.20;99.90;;;;;;5007446;28;19918;-70
2022/08/28 13:25:07;;;;;;;;;;;15.20;99.90;;;;;;5011003;28;19909;-70
2022/08/28 13:27:35;;;;;;;;;;;15.20;99.90;;;;;;5010989;28;20278;-70
2022/08/28 13:30:04;;;;;;;;;;;15.20;99.90;;;;;;5011040;28;19960;-70
2022/08/28 13:32:33;;;;;;;;;;;15.20;99.90;;;;;;5011013;28;20017;-70
2022/08/28 13:35:03;;;;;;;;;;;15.20;99.90;;;;;;5042177;28;19918;-70
2022/08/28 13:37:45;;;;;;;;;;;15.20;99.90;;;;;;5010979;28;19918;-70
2022/08/28 13:40:13;;;;;;;;;;;15.20;99.90;;;;;;5010946;28;20432;-70
2022/08/28 13:42:39;;;;;;;;;;;15.20;99.90;;;;;;5010865;28;19910;-70
2022/08/28 13:45:06;;;;;;;;;;;15.20;99.90;;;;;;5010875;28;19913;-70
2022/08/28 13:47:33;;;;;;;;;;;15.10;99.90;;;;;;5010681;28;20240;-70
2022/08/28 13:50:00;;;;;;;;;;;15.20;99.90;;;;;;5010424;28;19975;-70
2022/08/28 13:52:26;;;;;;;;;;;15.10;99.90;;;;;;5010932;28;19914;-70
2022/08/28 13:54:53;;;;;;;;;;;15.10;99.90;;;;;;5010737;28;20009;-70
2022/08/28 13:57:20;;;;;;;;;;;15.10;99.90;;;;;;5010602;28;19940;-71
2022/08/28 13:59:46;;;;;;;;;;;15.10;99.90;;;;;;5010326;28;19918;-70
2022/08/28 14:04:58;;;;;;;;;;;15.20;99.90;;;;;;5010509;28;19971;-69
2022/08/28 14:07:25;;;;;;;;;;;15.20;99.90;;;;;;5010465;28;19910;-69
2022/08/28 14:09:52;;;;;;;;;;;15.20;99.90;;;;;;5010198;28;19921;-69
2022/08/28 14:12:19;;;;;;;;;;;15.20;99.90;;;;;;5010480;28;19914;-69
2022/08/28 14:14:47;;;;;;;;;;;15.20;99.90;;;;;;5010090;28;19913;-69
2022/08/28 14:17:14;;;;;;;;;;;15.20;99.90;;;;;;5010437;28;19909;-69
2022/08/28 14:19:44;;;;;;;;;;;15.20;99.90;;;;;;5010091;28;19917;-70
2022/08/28 14:22:10;;;;;;;;;;;15.10;99.90;;;;;;5010131;28;19966;-69
2022/08/28 14:24:37;;;;;;;;;;;15.10;99.90;;;;;;5010342;28;19941;-70
2022/08/28 14:27:04;;;;;;;;;;;15.10;99.90;;;;;;5009896;28;19917;-70
2022/08/28 14:29:30;;;;;;;;;;;15.10;99.90;;;;;;5010284;28;19914;-68
2022/08/28 14:31:59;;;;;;;;;;;15.10;99.90;;;;;;5009903;28;19909;-68
2022/08/28 14:34:25;;;;;;;;;;;15.10;99.90;;;;;;5009802;28;20324;-69
2022/08/28 14:36:55;;;;;;;;;;;15.10;99.90;;;;;;5010165;28;19913;-69
2022/08/28 14:39:23;;;;;;;;;;;15.00;99.90;;;;;;5010018;28;20050;-68